createdAt,value
2019-06-08T00:00:16.795Z,99.99
2019-06-08T00:01:16.418Z,99.99
2019-06-08T00:02:16.617Z,99.99
2019-06-08T00:03:16.680Z,99.99
2019-06-08T00:04:16.511Z,99.99
2019-06-08T00:05:16.879Z,99.99
2019-06-08T00:06:16.753Z,99.99
2019-06-08T00:07:16.617Z,99.99
2019-06-08T00:08:16.822Z,99.99
2019-06-08T00:09:16.775Z,99.99
2019-06-08T00:10:16.904Z,99.99
2019-06-08T00:11:16.863Z,99.99
2019-06-08T00:12:16.872Z,99.99
2019-06-08T00:13:16.958Z,99.99
2019-06-08T00:14:17.346Z,99.99
2019-06-08T00:15:16.176Z,99.99
2019-06-08T00:16:15.777Z,99.99
2019-06-08T00:17:30.336Z,99.99
2019-06-08T00:18:15.784Z,99.99
2019-06-08T00:19:15.782Z,99.99
2019-06-08T00:20:15.789Z,99.99
2019-06-08T00:21:15.791Z,99.99
2019-06-08T00:22:15.811Z,99.99
2019-06-08T00:23:15.796Z,99.99
2019-06-08T00:24:15.796Z,99.99
2019-06-08T00:25:15.877Z,99.99
2019-06-08T00:26:16.017Z,99.99
2019-06-08T00:27:16.040Z,99.99
2019-06-08T00:28:16.159Z,99.99
2019-06-08T00:29:16.269Z,99.99
2019-06-08T00:30:15.801Z,99.99
2019-06-08T00:31:15.806Z,99.99
2019-06-08T00:32:16.169Z,99.99
2019-06-08T00:33:17.068Z,99.99
2019-06-08T00:34:16.576Z,99.99
2019-06-08T00:35:16.571Z,99.99
2019-06-08T00:36:16.737Z,99.99
2019-06-08T00:37:16.703Z,99.99
2019-06-08T00:38:16.902Z,99.99
2019-06-08T00:39:16.749Z,99.99
2019-06-08T00:40:16.845Z,99.99
2019-06-08T00:41:16.970Z,99.99
2019-06-08T00:42:17.013Z,99.99
2019-06-08T00:43:17.067Z,99.99
2019-06-08T00:44:17.052Z,99.99
2019-06-08T00:45:17.235Z,99.99
2019-06-08T00:46:15.834Z,99.99
2019-06-08T00:47:16.362Z,99.99
2019-06-08T00:48:16.748Z,99.99
2019-06-08T00:49:16.445Z,99.99
2019-06-08T00:50:16.708Z,99.99
2019-06-08T00:51:16.775Z,99.99
2019-06-08T00:52:16.907Z,99.99
2019-06-08T00:53:17.039Z,99.99
2019-06-08T00:54:17.270Z,99.99
2019-06-08T00:55:15.855Z,99.99
2019-06-08T00:56:15.852Z,99.99
2019-06-08T00:57:15.852Z,99.99
2019-06-08T00:58:15.858Z,99.99
2019-06-08T00:59:15.855Z,99.99
2019-06-08T01:00:15.866Z,99.99
2019-06-08T01:01:15.859Z,99.99
2019-06-08T01:02:15.860Z,99.99
2019-06-08T01:03:15.860Z,99.99
2019-06-08T01:04:15.865Z,99.99
2019-06-08T01:05:15.864Z,99.99
2019-06-08T01:06:15.867Z,99.99
2019-06-08T01:07:15.872Z,99.99
2019-06-08T01:08:15.909Z,99.99
2019-06-08T01:09:15.873Z,99.99
2019-06-08T01:10:15.873Z,99.99
2019-06-08T01:11:15.876Z,99.99
2019-06-08T01:12:15.921Z,99.99
2019-06-08T01:13:15.880Z,99.99
2019-06-08T01:14:15.891Z,99.99
2019-06-08T01:15:15.910Z,99.99
2019-06-08T01:16:15.888Z,99.99
2019-06-08T01:17:15.885Z,99.99
2019-06-08T01:18:15.887Z,99.99
2019-06-08T01:19:15.889Z,99.99
2019-06-08T01:20:15.891Z,99.99
2019-06-08T01:21:15.901Z,99.99
2019-06-08T01:22:15.896Z,99.99
2019-06-08T01:23:15.899Z,99.99
2019-06-08T01:24:15.902Z,99.99
2019-06-08T01:25:15.901Z,99.99
2019-06-08T01:26:15.901Z,99.99
2019-06-08T01:27:15.907Z,99.99
2019-06-08T01:28:15.908Z,99.99
2019-06-08T01:29:15.906Z,99.99
2019-06-08T01:30:15.979Z,99.99
2019-06-08T01:31:15.915Z,99.99
2019-06-08T01:32:15.912Z,99.99
2019-06-08T01:33:15.909Z,99.99
2019-06-08T01:34:15.917Z,99.99
2019-06-08T01:35:15.920Z,99.99
2019-06-08T01:36:15.922Z,99.99
2019-06-08T01:37:15.920Z,99.99
2019-06-08T01:38:15.921Z,99.99
2019-06-08T01:39:16.074Z,99.99
2019-06-08T01:40:15.926Z,99.99
2019-06-08T01:41:15.928Z,99.99
2019-06-08T01:42:15.936Z,99.99
2019-06-08T01:43:15.933Z,99.99
2019-06-08T01:44:15.934Z,99.99
2019-06-08T01:45:15.939Z,99.99
2019-06-08T01:46:15.939Z,99.99
2019-06-08T01:47:15.940Z,99.99
2019-06-08T01:48:20.415Z,99.99
2019-06-08T01:49:15.940Z,99.99
2019-06-08T01:50:15.956Z,99.99
2019-06-08T01:51:15.950Z,99.99
2019-06-08T01:52:15.950Z,99.99
2019-06-08T01:53:15.956Z,99.99
2019-06-08T01:54:15.954Z,99.99
2019-06-08T01:55:15.958Z,99.99
2019-06-08T01:56:15.962Z,99.99
2019-06-08T01:57:15.967Z,99.99
2019-06-08T01:58:15.958Z,99.99
2019-06-08T01:59:15.962Z,99.99
2019-06-08T02:00:29.683Z,99.99
2019-06-08T02:01:15.968Z,99.99
2019-06-08T02:02:15.970Z,99.99
2019-06-08T02:03:15.972Z,99.99
2019-06-08T02:04:15.978Z,99.99
2019-06-08T02:05:15.972Z,99.99
2019-06-08T02:06:15.980Z,99.99
2019-06-08T02:07:15.982Z,99.99
2019-06-08T02:08:15.982Z,99.99
2019-06-08T02:09:15.984Z,99.99
2019-06-08T02:10:15.986Z,99.99
2019-06-08T02:11:15.992Z,99.99
2019-06-08T02:12:15.988Z,99.99
2019-06-08T02:13:15.991Z,99.99
2019-06-08T02:14:15.992Z,99.99
2019-06-08T02:15:15.997Z,99.99
2019-06-08T02:16:16.000Z,99.99
2019-06-08T02:17:16.028Z,99.99
2019-06-08T02:18:16.004Z,99.99
2019-06-08T02:19:16.006Z,99.99
2019-06-08T02:20:16.002Z,99.99
2019-06-08T02:21:16.003Z,99.99
2019-06-08T02:22:16.014Z,99.99
2019-06-08T02:23:16.010Z,99.99
2019-06-08T02:24:16.014Z,99.99
2019-06-08T02:25:16.016Z,99.99
2019-06-08T02:26:16.018Z,99.99
2019-06-08T02:27:16.022Z,99.99
2019-06-08T02:28:16.020Z,99.99
2019-06-08T02:29:16.024Z,99.99
2019-06-08T02:30:16.026Z,99.99
2019-06-08T02:31:16.030Z,99.99
2019-06-08T02:32:16.031Z,99.99
2019-06-08T02:33:16.035Z,99.99
2019-06-08T02:34:16.037Z,99.64
2019-06-08T02:35:16.036Z,99.93
2019-06-08T02:36:16.055Z,99.73
2019-06-08T02:37:16.045Z,99.83
2019-06-08T02:38:16.044Z,99.99
2019-06-08T02:39:16.044Z,99.35
2019-06-08T02:40:16.047Z,99.26
2019-06-08T02:41:16.043Z,99.26
2019-06-08T02:42:16.051Z,98.39
2019-06-08T02:43:16.060Z,98.77
2019-06-08T02:44:16.059Z,98.39
2019-06-08T02:45:16.056Z,98.53
2019-06-08T02:46:16.058Z,98.68
2019-06-08T02:47:16.514Z,98.58
2019-06-08T02:48:16.261Z,98.53
2019-06-08T02:49:16.068Z,98.82
2019-06-08T02:50:16.068Z,98.53
2019-06-08T02:51:16.078Z,98.72
2019-06-08T02:52:16.080Z,98.53
2019-06-08T02:53:16.075Z,98.34
2019-06-08T02:54:16.079Z,98.44
2019-06-08T02:55:16.082Z,98.24
2019-06-08T02:56:16.091Z,98.44
2019-06-08T02:57:16.093Z,98.34
2019-06-08T02:58:16.081Z,98.14
2019-06-08T02:59:16.085Z,98.34
2019-06-08T03:00:16.092Z,97.76
2019-06-08T03:01:16.091Z,97.76
2019-06-08T03:02:16.095Z,97.86
2019-06-08T03:03:16.094Z,98.63
2019-06-08T03:04:16.100Z,98.44
2019-06-08T03:05:16.105Z,98.53
2019-06-08T03:06:16.097Z,98.82
2019-06-08T03:07:16.107Z,98.44
2019-06-08T03:08:16.104Z,98.24
2019-06-08T03:09:16.105Z,98.72
2019-06-08T03:10:16.114Z,98.34
2019-06-08T03:11:16.109Z,98.53
2019-06-08T03:12:16.114Z,98.14
2019-06-08T03:13:16.115Z,97.47
2019-06-08T03:14:16.318Z,97.19
2019-06-08T03:15:16.120Z,96.99
2019-06-08T03:16:16.124Z,97.28
2019-06-08T03:17:16.123Z,97.38
2019-06-08T03:18:16.127Z,96.51
2019-06-08T03:19:21.469Z,97.19
2019-06-08T03:20:16.131Z,96.80
2019-06-08T03:21:16.135Z,97.19
2019-06-08T03:22:16.137Z,96.61
2019-06-08T03:23:16.137Z,96.70
2019-06-08T03:24:16.135Z,96.80
2019-06-08T03:25:16.133Z,95.94
2019-06-08T03:26:16.139Z,95.75
2019-06-08T03:27:16.145Z,95.75
2019-06-08T03:28:16.155Z,95.55
2019-06-08T03:29:16.144Z,95.75
2019-06-08T03:30:18.920Z,95.65
2019-06-08T03:31:16.151Z,96.13
2019-06-08T03:32:16.153Z,96.03
2019-06-08T03:33:16.154Z,95.45
2019-06-08T03:34:16.163Z,95.26
2019-06-08T03:35:16.159Z,95.94
2019-06-08T03:36:16.172Z,96.03
2019-06-08T03:37:16.165Z,95.55
2019-06-08T03:38:16.162Z,95.55
2019-06-08T03:39:16.173Z,95.84
2019-06-08T03:40:16.167Z,95.75
2019-06-08T03:41:16.169Z,94.98
2019-06-08T03:42:16.172Z,95.07
2019-06-08T03:43:16.179Z,95.26
2019-06-08T03:44:16.176Z,94.49
2019-06-08T03:45:16.178Z,94.78
2019-06-08T03:46:16.193Z,94.78
2019-06-08T03:47:16.193Z,95.07
2019-06-08T03:48:16.189Z,95.36
2019-06-08T03:49:16.196Z,95.75
2019-06-08T03:50:16.203Z,96.13
2019-06-08T03:51:16.194Z,95.55
2019-06-08T03:52:16.193Z,95.50
2019-06-08T03:53:16.196Z,96.17
2019-06-08T03:54:16.195Z,96.61
2019-06-08T03:55:16.197Z,96.32
2019-06-08T03:56:16.195Z,95.75
2019-06-08T03:57:16.201Z,95.55
2019-06-08T03:58:16.217Z,94.88
2019-06-08T03:59:16.209Z,93.15
2019-06-08T04:00:16.215Z,91.99
2019-06-08T04:01:16.213Z,92.47
2019-06-08T04:02:16.220Z,91.75
2019-06-08T04:03:16.218Z,91.47
2019-06-08T04:04:16.221Z,92.33
2019-06-08T04:05:16.224Z,92.33
2019-06-08T04:06:16.219Z,92.43
2019-06-08T04:07:16.230Z,90.70
2019-06-08T04:08:16.233Z,90.99
2019-06-08T04:09:16.230Z,90.70
2019-06-08T04:10:16.231Z,89.83
2019-06-08T04:11:16.230Z,90.12
2019-06-08T04:12:16.231Z,90.51
2019-06-08T04:13:16.241Z,91.56
2019-06-08T04:14:16.249Z,90.60
2019-06-08T04:15:16.240Z,90.41
2019-06-08T04:16:16.239Z,90.60
2019-06-08T04:17:16.259Z,90.41
2019-06-08T04:18:16.244Z,90.51
2019-06-08T04:19:16.258Z,90.31
2019-06-08T04:20:16.261Z,90.60
2019-06-08T04:21:16.256Z,90.31
2019-06-08T04:22:16.254Z,90.89
2019-06-08T04:23:16.258Z,90.31
2019-06-08T04:24:16.259Z,90.12
2019-06-08T04:25:16.259Z,90.60
2019-06-08T04:26:16.270Z,90.51
2019-06-08T04:27:16.261Z,90.12
2019-06-08T04:28:16.262Z,90.12
2019-06-08T04:29:19.717Z,90.03
2019-06-08T04:30:16.272Z,90.41
2019-06-08T04:31:17.072Z,90.31
2019-06-08T04:32:16.276Z,91.04
2019-06-08T04:33:16.273Z,90.22
2019-06-08T04:34:16.275Z,90.12
2019-06-08T04:35:16.279Z,89.93
2019-06-08T04:36:16.295Z,89.45
2019-06-08T04:37:16.285Z,90.41
2019-06-08T04:38:16.286Z,89.93
2019-06-08T04:39:16.290Z,90.22
2019-06-08T04:40:16.287Z,90.31
2019-06-08T04:41:16.288Z,90.80
2019-06-08T04:42:16.289Z,90.70
2019-06-08T04:43:16.293Z,90.03
2019-06-08T04:44:16.303Z,90.51
2019-06-08T04:45:16.296Z,90.12
2019-06-08T04:46:16.302Z,90.31
2019-06-08T04:47:16.299Z,90.12
2019-06-08T04:48:16.306Z,90.27
2019-06-08T04:49:16.307Z,90.37
2019-06-08T04:50:22.739Z,90.80
2019-06-08T04:51:16.308Z,90.60
2019-06-08T04:52:16.308Z,90.51
2019-06-08T04:53:16.310Z,90.70
2019-06-08T04:54:16.312Z,91.28
2019-06-08T04:55:16.314Z,91.18
2019-06-08T04:56:16.322Z,91.56
2019-06-08T04:57:16.315Z,91.56
2019-06-08T04:58:16.324Z,91.61
2019-06-08T04:59:16.322Z,91.71
2019-06-08T05:00:16.328Z,91.52
2019-06-08T05:01:16.326Z,91.42
2019-06-08T05:02:16.328Z,91.90
2019-06-08T05:03:16.329Z,92.48
2019-06-08T05:04:16.331Z,92.10
2019-06-08T05:05:16.332Z,92.29
2019-06-08T05:06:16.338Z,92.00
2019-06-08T05:07:16.330Z,91.71
2019-06-08T05:08:16.337Z,91.04
2019-06-08T05:09:16.389Z,91.33
2019-06-08T05:10:16.345Z,91.42
2019-06-08T05:11:16.342Z,92.19
2019-06-08T05:12:16.346Z,91.52
2019-06-08T05:13:16.347Z,91.04
2019-06-08T05:14:16.347Z,91.13
2019-06-08T05:15:16.357Z,91.04
2019-06-08T05:16:16.358Z,91.04
2019-06-08T05:17:16.355Z,90.46
2019-06-08T05:18:16.396Z,90.17
2019-06-08T05:19:16.358Z,89.22
2019-06-08T05:20:16.361Z,89.02
2019-06-08T05:21:16.364Z,89.50
2019-06-08T05:22:16.363Z,89.50
2019-06-08T05:23:16.369Z,89.60
2019-06-08T05:24:16.373Z,88.54
2019-06-08T05:25:16.373Z,89.12
2019-06-08T05:26:16.370Z,89.50
2019-06-08T05:27:16.395Z,88.16
2019-06-08T05:28:16.386Z,88.83
2019-06-08T05:29:16.378Z,88.93
2019-06-08T05:30:16.384Z,88.54
2019-06-08T05:31:16.378Z,88.87
2019-06-08T05:32:16.386Z,88.97
2019-06-08T05:33:16.394Z,89.07
2019-06-08T05:34:16.385Z,88.78
2019-06-08T05:35:16.385Z,88.16
2019-06-08T05:36:16.388Z,87.87
2019-06-08T05:37:16.390Z,88.01
2019-06-08T05:38:16.390Z,88.06
2019-06-08T05:39:16.394Z,87.87
2019-06-08T05:40:16.395Z,87.68
2019-06-08T05:41:16.418Z,88.54
2019-06-08T05:42:16.394Z,88.45
2019-06-08T05:43:16.400Z,88.73
2019-06-08T05:44:16.402Z,88.16
2019-06-08T05:45:16.406Z,88.35
2019-06-08T05:46:16.401Z,88.54
2019-06-08T05:47:16.407Z,88.54
2019-06-08T05:48:16.430Z,88.45
2019-06-08T05:49:16.412Z,88.83
2019-06-08T05:50:16.416Z,88.06
2019-06-08T05:51:16.420Z,88.35
2019-06-08T05:52:16.418Z,87.77
2019-06-08T05:53:16.419Z,88.73
2019-06-08T05:54:16.424Z,88.45
2019-06-08T05:55:16.428Z,89.02
2019-06-08T05:56:16.426Z,88.54
2019-06-08T05:57:16.429Z,88.54
2019-06-08T05:58:16.428Z,88.83
2019-06-08T05:59:16.432Z,88.35
2019-06-08T06:00:16.431Z,88.06
2019-06-08T06:01:16.430Z,87.24
2019-06-08T06:02:16.448Z,87.72
2019-06-08T06:03:16.436Z,88.20
2019-06-08T06:04:16.439Z,87.05
2019-06-08T06:05:16.443Z,86.95
2019-06-08T06:06:16.438Z,87.43
2019-06-08T06:07:16.442Z,87.53
2019-06-08T06:08:19.271Z,87.62
2019-06-08T06:09:16.446Z,87.62
2019-06-08T06:10:16.446Z,86.09
2019-06-08T06:11:16.450Z,86.38
2019-06-08T06:12:16.450Z,86.18
2019-06-08T06:13:16.455Z,85.71
2019-06-08T06:14:16.456Z,86.38
2019-06-08T06:15:16.458Z,85.41
2019-06-08T06:16:16.455Z,85.03
2019-06-08T06:17:16.456Z,84.84
2019-06-08T06:18:16.482Z,84.84
2019-06-08T06:19:16.464Z,84.64
2019-06-08T06:20:16.465Z,84.17
2019-06-08T06:21:16.468Z,84.07
2019-06-08T06:22:16.462Z,84.07
2019-06-08T06:23:16.473Z,84.36
2019-06-08T06:24:16.472Z,84.21
2019-06-08T06:25:16.478Z,83.92
2019-06-08T06:26:16.482Z,84.21
2019-06-08T06:27:16.478Z,83.73
2019-06-08T06:28:16.484Z,83.44
2019-06-08T06:29:16.482Z,82.86
2019-06-08T06:30:16.484Z,82.42
2019-06-08T06:31:16.485Z,82.42
2019-06-08T06:32:16.485Z,82.90
2019-06-08T06:33:16.488Z,82.04
2019-06-08T06:34:16.484Z,81.60
2019-06-08T06:35:16.491Z,79.86
2019-06-08T06:36:16.492Z,79.28
2019-06-08T06:37:16.496Z,79.86
2019-06-08T06:38:16.496Z,79.86
2019-06-08T06:39:16.497Z,79.00
2019-06-08T06:40:16.507Z,79.10
2019-06-08T06:41:16.506Z,79.28
2019-06-08T06:42:16.508Z,79.67
2019-06-08T06:43:16.507Z,79.10
2019-06-08T06:44:16.505Z,79.67
2019-06-08T06:45:16.512Z,79.77
2019-06-08T06:46:16.510Z,79.10
2019-06-08T06:47:16.513Z,78.90
2019-06-08T06:48:16.520Z,79.19
2019-06-08T06:49:16.516Z,79.10
2019-06-08T06:50:16.518Z,79.58
2019-06-08T06:51:25.675Z,79.96
2019-06-08T06:52:16.521Z,80.30
2019-06-08T06:53:16.524Z,79.38
2019-06-08T06:54:16.524Z,80.35
2019-06-08T06:55:16.530Z,80.60
2019-06-08T06:56:16.534Z,79.86
2019-06-08T06:57:16.538Z,79.00
2019-06-08T06:58:16.546Z,78.71
2019-06-08T06:59:16.537Z,78.96
2019-06-08T07:00:16.547Z,78.33
2019-06-08T07:01:16.541Z,78.03
2019-06-08T07:02:16.544Z,77.65
2019-06-08T07:03:16.548Z,77.46
2019-06-08T07:04:16.563Z,77.26
2019-06-08T07:05:16.555Z,75.73
2019-06-08T07:06:16.552Z,76.01
2019-06-08T07:07:16.568Z,76.01
2019-06-08T07:08:16.560Z,76.40
2019-06-08T07:09:16.562Z,77.08
2019-06-08T07:10:16.568Z,76.69
2019-06-08T07:11:16.566Z,76.01
2019-06-08T07:12:16.595Z,76.01
2019-06-08T07:13:16.570Z,75.28
2019-06-08T07:14:16.566Z,76.15
2019-06-08T07:15:16.573Z,74.90
2019-06-08T07:16:18.895Z,73.07
2019-06-08T07:17:16.582Z,73.07
2019-06-08T07:18:16.583Z,72.59
2019-06-08T07:19:16.582Z,72.43
2019-06-08T07:20:17.040Z,71.95
2019-06-08T07:21:16.594Z,71.37
2019-06-08T07:22:16.594Z,71.18
2019-06-08T07:23:16.594Z,70.41
2019-06-08T07:24:16.600Z,69.45
2019-06-08T07:25:16.598Z,70.35
2019-06-08T07:26:16.602Z,71.41
2019-06-08T07:27:16.607Z,71.12
2019-06-08T07:28:16.601Z,70.15
2019-06-08T07:29:16.607Z,69.38
2019-06-08T07:30:16.629Z,70.38
2019-06-08T07:31:16.612Z,70.48
2019-06-08T07:32:16.622Z,70.61
2019-06-08T07:33:16.617Z,70.13
2019-06-08T07:34:16.621Z,68.59
2019-06-08T07:35:16.630Z,67.71
2019-06-08T07:36:16.627Z,68.16
2019-06-08T07:37:16.625Z,68.74
2019-06-08T07:38:16.632Z,68.59
2019-06-08T07:39:16.636Z,68.74
2019-06-08T07:40:16.635Z,69.61
2019-06-08T07:41:16.636Z,69.32
2019-06-08T07:42:16.645Z,68.84
2019-06-08T07:43:16.649Z,69.13
2019-06-08T07:44:16.693Z,68.90
2019-06-08T07:45:16.648Z,68.90
2019-06-08T07:46:16.657Z,69.77
2019-06-08T07:47:16.653Z,69.29
2019-06-08T07:48:16.665Z,69.48
2019-06-08T07:49:16.665Z,69.54
2019-06-08T07:50:16.670Z,68.87
2019-06-08T07:51:16.670Z,69.06
2019-06-08T07:52:16.974Z,69.45
2019-06-08T07:53:16.678Z,69.25
2019-06-08T07:54:16.673Z,69.93
2019-06-08T07:55:16.681Z,69.54
2019-06-08T07:56:16.689Z,70.31
2019-06-08T07:57:16.690Z,70.60
2019-06-08T07:58:16.703Z,70.02
2019-06-08T07:59:16.702Z,71.08
2019-06-08T08:00:16.698Z,70.60
2019-06-08T08:01:16.700Z,71.47
2019-06-08T08:02:16.704Z,70.89
2019-06-08T08:03:16.708Z,70.98
2019-06-08T08:04:16.709Z,71.81
2019-06-08T08:05:16.713Z,71.62
2019-06-08T08:06:16.715Z,71.53
2019-06-08T08:07:16.721Z,72.11
2019-06-08T08:08:16.726Z,71.62
2019-06-08T08:09:16.735Z,71.91
2019-06-08T08:10:16.748Z,72.84
2019-06-08T08:11:16.733Z,72.65
2019-06-08T08:12:16.737Z,72.55
2019-06-08T08:13:16.740Z,73.46
2019-06-08T08:14:16.737Z,72.49
2019-06-08T08:15:16.744Z,72.20
2019-06-08T08:16:16.749Z,72.11
2019-06-08T08:17:16.750Z,72.49
2019-06-08T08:18:16.751Z,71.59
2019-06-08T08:19:16.749Z,71.88
2019-06-08T08:20:16.759Z,72.84
2019-06-08T08:21:23.084Z,72.39
2019-06-08T08:22:25.027Z,72.59
2019-06-08T08:23:17.369Z,71.34
2019-06-08T08:24:17.396Z,71.91
2019-06-08T08:25:18.267Z,71.95
2019-06-08T08:26:16.780Z,70.98
2019-06-08T08:27:17.933Z,69.48
2019-06-08T08:28:17.678Z,68.80
2019-06-08T08:29:17.647Z,68.90
2019-06-08T08:30:17.301Z,68.71
2019-06-08T08:31:18.595Z,68.71
2019-06-08T08:32:18.828Z,68.71
2019-06-08T08:33:18.351Z,69.48
2019-06-08T08:34:18.280Z,69.09
2019-06-08T08:35:18.519Z,69.25
2019-06-08T08:36:18.000Z,69.73
2019-06-08T08:37:17.581Z,70.02
2019-06-08T08:38:17.716Z,71.08
2019-06-08T08:39:17.640Z,70.02
2019-06-08T08:40:17.818Z,70.76
2019-06-08T08:41:18.176Z,69.51
2019-06-08T08:42:17.997Z,69.89
2019-06-08T08:43:17.862Z,70.34
2019-06-08T08:44:17.633Z,70.34
2019-06-08T08:45:18.300Z,70.82
2019-06-08T08:46:17.304Z,70.82
2019-06-08T08:47:18.722Z,71.20
2019-06-08T08:48:25.514Z,71.30
2019-06-08T08:49:18.242Z,69.76
2019-06-08T08:50:18.347Z,71.30
2019-06-08T08:51:17.992Z,71.88
2019-06-08T08:52:17.502Z,71.97
2019-06-08T08:53:18.009Z,71.20
2019-06-08T08:54:18.327Z,70.62
2019-06-08T08:55:20.235Z,70.24
2019-06-08T08:56:18.149Z,70.05
2019-06-08T08:57:18.126Z,70.34
2019-06-08T08:58:18.586Z,70.62
2019-06-08T08:59:17.776Z,69.95
2019-06-08T09:00:18.068Z,70.24
2019-06-08T09:01:20.269Z,70.34
2019-06-08T09:02:21.079Z,70.92
2019-06-08T09:03:29.028Z,70.15
2019-06-08T09:04:18.536Z,70.68
2019-06-08T09:05:18.149Z,71.94
2019-06-08T09:06:18.139Z,70.78
2019-06-08T09:07:18.384Z,71.55
2019-06-08T09:08:18.200Z,70.88
2019-06-08T09:09:18.785Z,72.03
2019-06-08T09:10:18.298Z,71.94
2019-06-08T09:11:17.595Z,72.52
2019-06-08T09:12:18.305Z,72.52
2019-06-08T09:13:18.675Z,73.86
2019-06-08T09:14:18.441Z,74.44
2019-06-08T09:15:19.030Z,74.15
2019-06-08T09:16:17.735Z,73.28
2019-06-08T09:17:18.051Z,72.52
2019-06-08T09:18:18.796Z,73.25
2019-06-08T09:19:20.544Z,72.52
2019-06-08T09:20:19.259Z,72.77
2019-06-08T09:21:18.623Z,72.86
2019-06-08T09:22:18.798Z,73.83
2019-06-08T09:23:21.559Z,73.15
2019-06-08T09:24:18.623Z,73.54
2019-06-08T09:25:18.150Z,73.92
2019-06-08T09:26:17.606Z,72.96
2019-06-08T09:27:17.935Z,73.35
2019-06-08T09:28:18.619Z,73.25
2019-06-08T09:29:18.904Z,73.54
2019-06-08T09:30:18.309Z,73.44
2019-06-08T09:31:18.724Z,73.54
2019-06-08T09:32:17.963Z,72.96
2019-06-08T09:33:18.798Z,72.86
2019-06-08T09:34:19.476Z,71.04
2019-06-08T09:35:18.655Z,71.52
2019-06-08T09:36:17.714Z,71.52
2019-06-08T09:37:18.516Z,71.71
2019-06-08T09:38:18.579Z,72.86
2019-06-08T09:39:18.527Z,73.06
2019-06-08T09:40:16.983Z,72.86
2019-06-08T09:41:18.644Z,72.67
2019-06-08T09:42:20.856Z,73.06
2019-06-08T09:43:18.933Z,72.77
2019-06-08T09:44:18.555Z,72.86
2019-06-08T09:45:18.188Z,72.77
2019-06-08T09:46:17.902Z,72.23
2019-06-08T09:47:18.155Z,71.84
2019-06-08T09:48:18.178Z,71.65
2019-06-08T09:49:18.770Z,71.26
2019-06-08T09:50:18.568Z,69.85
2019-06-08T09:51:18.658Z,70.92
2019-06-08T09:52:18.499Z,69.38
2019-06-08T09:53:26.779Z,68.60
2019-06-08T09:54:18.290Z,69.18
2019-06-08T09:55:18.081Z,70.43
2019-06-08T09:56:18.516Z,69.18
2019-06-08T09:57:18.928Z,70.34
2019-06-08T09:58:18.104Z,70.92
2019-06-08T09:59:18.743Z,70.82
2019-06-08T10:00:21.205Z,70.24
2019-06-08T10:01:18.435Z,70.82
2019-06-08T10:02:18.539Z,70.21
2019-06-08T10:03:18.657Z,69.63
2019-06-08T10:04:17.032Z,69.53
2019-06-08T10:05:18.546Z,68.86
2019-06-08T10:06:18.200Z,68.76
2019-06-08T10:07:18.639Z,68.48
2019-06-08T10:08:20.186Z,68.57
2019-06-08T10:09:18.677Z,68.63
2019-06-08T10:10:18.220Z,69.21
2019-06-08T10:11:17.051Z,69.21
2019-06-08T10:12:18.211Z,69.69
2019-06-08T10:13:18.990Z,69.02
2019-06-08T10:14:18.775Z,69.12
2019-06-08T10:15:17.901Z,68.54
2019-06-08T10:16:18.605Z,68.73
2019-06-08T10:17:20.560Z,69.21
2019-06-08T10:18:17.664Z,68.83
2019-06-08T10:19:18.691Z,68.92
2019-06-08T10:20:18.399Z,69.40
2019-06-08T10:21:18.257Z,68.92
2019-06-08T10:22:18.187Z,69.21
2019-06-08T10:23:29.890Z,69.02
2019-06-08T10:24:17.101Z,69.53
2019-06-08T10:25:17.077Z,69.53
2019-06-08T10:26:17.821Z,68.76
2019-06-08T10:27:18.748Z,68.67
2019-06-08T10:28:21.054Z,69.06
2019-06-08T10:29:18.411Z,68.38
2019-06-08T10:30:17.095Z,68.57
2019-06-08T10:31:17.592Z,68.19
2019-06-08T10:32:18.043Z,68.67
2019-06-08T10:33:18.486Z,67.42
2019-06-08T10:34:17.110Z,68.41
2019-06-08T10:35:20.613Z,68.22
2019-06-08T10:36:18.248Z,67.74
2019-06-08T10:37:18.675Z,67.26
2019-06-08T10:38:18.118Z,67.35
2019-06-08T10:39:17.119Z,66.20
2019-06-08T10:40:18.711Z,65.81
2019-06-08T10:41:21.426Z,65.53
2019-06-08T10:42:18.031Z,65.53
2019-06-08T10:43:17.477Z,66.20
2019-06-08T10:44:18.290Z,66.30
2019-06-08T10:45:18.515Z,65.88
2019-06-08T10:46:20.699Z,66.65
2019-06-08T10:47:17.132Z,66.46
2019-06-08T10:48:17.938Z,67.61
2019-06-08T10:49:18.714Z,67.51
2019-06-08T10:50:19.239Z,67.71
2019-06-08T10:51:18.320Z,67.80
2019-06-08T10:52:20.087Z,67.71
2019-06-08T10:53:17.144Z,67.61
2019-06-08T10:54:17.479Z,67.99
2019-06-08T10:55:17.997Z,67.80
2019-06-08T10:56:18.816Z,67.65
2019-06-08T10:57:18.261Z,67.45
2019-06-08T10:58:19.359Z,67.74
2019-06-08T10:59:18.561Z,67.55
2019-06-08T11:00:22.548Z,67.55
2019-06-08T11:01:18.766Z,67.83
2019-06-08T11:02:18.810Z,67.68
2019-06-08T11:03:17.172Z,67.00
2019-06-08T11:04:18.640Z,65.85
2019-06-08T11:05:18.069Z,66.27
2019-06-08T11:06:18.739Z,66.36
2019-06-08T11:07:17.211Z,65.59
2019-06-08T11:08:18.793Z,66.17
2019-06-08T11:09:18.858Z,65.98
2019-06-08T11:10:19.123Z,66.88
2019-06-08T11:11:19.850Z,66.01
2019-06-08T11:12:18.378Z,65.63
2019-06-08T11:13:18.879Z,65.17
2019-06-08T11:14:18.417Z,64.72
2019-06-08T11:15:17.202Z,64.43
2019-06-08T11:16:18.039Z,63.31
2019-06-08T11:17:17.947Z,63.89
2019-06-08T11:18:18.556Z,62.95
2019-06-08T11:19:17.983Z,61.70
2019-06-08T11:20:17.290Z,60.57
2019-06-08T11:21:18.690Z,61.80
2019-06-08T11:22:18.058Z,60.47
2019-06-08T11:23:18.821Z,60.06
2019-06-08T11:24:24.152Z,59.22
2019-06-08T11:25:19.778Z,59.02
2019-06-08T11:26:19.859Z,59.22
2019-06-08T11:27:18.766Z,59.02
2019-06-08T11:28:18.560Z,58.93
2019-06-08T11:29:18.812Z,59.02
2019-06-08T11:30:23.628Z,58.70
2019-06-08T11:31:19.621Z,59.06
2019-06-08T11:32:18.393Z,59.83
2019-06-08T11:33:17.282Z,60.89
2019-06-08T11:34:18.619Z,59.93
2019-06-08T11:35:17.802Z,60.93
2019-06-08T11:36:18.846Z,59.51
2019-06-08T11:37:20.835Z,58.31
2019-06-08T11:38:17.489Z,58.24
2019-06-08T11:39:18.726Z,54.62
2019-06-08T11:40:18.076Z,52.71
2019-06-08T11:41:19.002Z,51.18
2019-06-08T11:42:19.100Z,50.72
2019-06-08T11:43:18.311Z,49.77
2019-06-08T11:44:18.202Z,48.80
2019-06-08T11:45:17.837Z,47.86
2019-06-08T11:46:20.917Z,47.11
2019-06-08T11:47:18.203Z,46.81
2019-06-08T11:48:18.302Z,47.30
2019-06-08T11:49:18.740Z,46.23
2019-06-08T11:50:18.269Z,45.28
2019-06-08T11:51:17.417Z,44.62
2019-06-08T11:52:18.442Z,45.42
2019-06-08T11:53:18.186Z,44.96
2019-06-08T11:54:32.727Z,44.57
2019-06-08T11:55:18.150Z,44.16
2019-06-08T11:56:18.248Z,44.82
2019-06-08T11:57:17.800Z,45.98
2019-06-08T11:58:22.184Z,45.57
2019-06-08T11:59:17.509Z,45.75
2019-06-08T12:00:25.207Z,47.47
2019-06-08T12:01:18.624Z,46.79
2019-06-08T12:02:18.552Z,45.87
2019-06-08T12:03:17.560Z,46.82
2019-06-08T12:04:18.371Z,47.60
2019-06-08T12:05:18.081Z,48.57
2019-06-08T12:06:18.571Z,48.54
2019-06-08T12:07:17.609Z,48.54
2019-06-08T12:08:20.754Z,48.81
2019-06-08T12:09:18.825Z,48.71
2019-06-08T12:10:17.981Z,47.33
2019-06-08T12:11:19.766Z,46.92
2019-06-08T12:12:20.564Z,47.69
2019-06-08T12:13:17.983Z,48.35
2019-06-08T12:14:17.867Z,49.60
2019-06-08T12:15:20.982Z,49.58
2019-06-08T12:16:21.407Z,48.81
2019-06-08T12:17:22.163Z,49.37
2019-06-08T12:18:18.269Z,48.69
2019-06-08T12:19:20.753Z,49.07
2019-06-08T12:20:20.662Z,49.17
2019-06-08T12:21:18.563Z,49.17
2019-06-08T12:22:18.046Z,48.39
2019-06-08T12:23:17.783Z,48.95
2019-06-08T12:24:17.796Z,48.57
2019-06-08T12:25:17.797Z,48.86
2019-06-08T12:26:17.814Z,49.80
2019-06-08T12:27:28.879Z,50.09
2019-06-08T12:28:17.982Z,49.51
2019-06-08T12:29:18.929Z,50.18
2019-06-08T12:30:25.635Z,50.18
2019-06-08T12:31:22.261Z,50.09
2019-06-08T12:32:18.352Z,50.18
2019-06-08T12:33:19.185Z,49.80
2019-06-08T12:34:18.551Z,51.73
2019-06-08T12:35:18.146Z,50.86
2019-06-08T12:36:20.647Z,50.38
2019-06-08T12:37:22.151Z,49.99
2019-06-08T12:38:18.953Z,50.38
2019-06-08T12:39:20.944Z,50.67
2019-06-08T12:40:20.428Z,50.50
2019-06-08T12:41:19.247Z,49.27
2019-06-08T12:42:20.760Z,48.21
2019-06-08T12:43:19.823Z,48.52
2019-06-08T12:44:21.728Z,46.32
2019-06-08T12:45:19.078Z,46.32
2019-06-08T12:46:20.914Z,46.15
2019-06-08T12:47:24.750Z,44.53
2019-06-08T12:48:23.516Z,43.68
2019-06-08T12:49:18.726Z,43.48
2019-06-08T12:50:17.971Z,44.35
2019-06-08T12:51:19.924Z,43.68
2019-06-08T12:52:22.189Z,43.87